createdAt,value
2024-02-08T00:02:42.935Z,41.62
2024-02-08T00:05:29.032Z,41.54
2024-02-08T00:08:15.178Z,41.71
2024-02-08T00:11:01.223Z,41.82
2024-02-08T00:13:47.215Z,41.80
2024-02-08T00:16:33.477Z,42.01
2024-02-08T00:19:19.571Z,41.87
2024-02-08T00:22:06.056Z,41.94
2024-02-08T00:24:55.069Z,41.78
2024-02-08T00:27:41.008Z,41.33
2024-02-08T00:30:27.185Z,41.88
2024-02-08T00:33:13.760Z,41.84
2024-02-08T00:35:59.615Z,42.30
2024-02-08T00:38:45.657Z,41.61
2024-02-08T00:41:34.790Z,41.81
2024-02-08T00:44:27.340Z,41.89
2024-02-08T00:47:13.528Z,41.70
2024-02-08T00:50:00.865Z,42.04
2024-02-08T00:52:47.031Z,42.09
2024-02-08T00:55:37.180Z,42.35
2024-02-08T00:58:23.435Z,42.59
2024-02-08T01:01:10.618Z,42.29
2024-02-08T01:03:57.255Z,42.45
2024-02-08T01:06:43.331Z,42.37
2024-02-08T01:09:29.720Z,42.66
2024-02-08T01:12:16.034Z,42.54
2024-02-08T01:15:03.764Z,42.28
2024-02-08T01:17:53.267Z,42.42
2024-02-08T01:20:39.443Z,42.33
2024-02-08T01:23:27.348Z,42.66
2024-02-08T01:26:13.397Z,42.61
2024-02-08T01:28:59.764Z,42.49
2024-02-08T01:31:45.856Z,42.50
2024-02-08T01:34:32.180Z,42.58
2024-02-08T01:37:18.790Z,42.26
2024-02-08T01:40:17.802Z,42.62
2024-02-08T01:43:06.297Z,42.88
2024-02-08T01:45:52.094Z,42.69
2024-02-08T01:48:46.400Z,42.49
2024-02-08T01:51:32.849Z,42.69
2024-02-08T01:54:20.701Z,42.43
2024-02-08T01:57:09.455Z,42.74
2024-02-08T01:59:55.736Z,42.77
2024-02-08T02:02:42.528Z,42.73
2024-02-08T02:05:30.016Z,42.72
2024-02-08T02:08:20.072Z,42.80
2024-02-08T02:11:22.895Z,42.77
2024-02-08T02:14:11.096Z,43.14
2024-02-08T02:17:20.266Z,43.20
2024-02-08T02:20:09.637Z,42.89
2024-02-08T02:22:55.895Z,42.40
2024-02-08T02:25:42.389Z,42.69
2024-02-08T02:28:30.434Z,42.96
2024-02-08T02:31:18.231Z,43.09
2024-02-08T02:34:07.376Z,43.19
2024-02-08T02:36:59.825Z,42.85
2024-02-08T02:39:46.673Z,43.22
2024-02-08T02:42:33.000Z,43.03
2024-02-08T02:45:31.139Z,43.39
2024-02-08T02:48:18.857Z,43.28
2024-02-08T02:51:05.601Z,43.42
2024-02-08T02:53:51.402Z,43.39
2024-02-08T02:56:37.542Z,42.83
2024-02-08T02:59:27.925Z,42.91
2024-02-08T03:02:14.251Z,43.03
2024-02-08T03:05:00.416Z,43.28
2024-02-08T03:07:47.409Z,42.85
2024-02-08T03:10:36.066Z,43.09
2024-02-08T03:13:22.104Z,43.18
2024-02-08T03:16:11.431Z,43.25
2024-02-08T03:18:59.074Z,43.21
2024-02-08T03:21:46.540Z,43.03
2024-02-08T03:24:37.358Z,43.56
2024-02-08T03:27:26.048Z,43.17
2024-02-08T03:30:32.308Z,42.74
2024-02-08T03:33:18.390Z,43.55
2024-02-08T03:36:08.260Z,43.38
2024-02-08T03:38:54.582Z,43.20
2024-02-08T03:41:42.265Z,43.29
2024-02-08T03:44:32.230Z,43.14
2024-02-08T03:47:18.552Z,43.88
2024-02-08T03:50:05.444Z,43.20
2024-02-08T03:52:54.757Z,43.41
2024-02-08T03:55:45.338Z,43.32
2024-02-08T03:58:32.229Z,43.16
2024-02-08T04:01:22.728Z,43.46
2024-02-08T04:04:19.514Z,43.41
2024-02-08T04:07:35.299Z,43.66
2024-02-08T04:10:35.526Z,43.68
2024-02-08T04:13:41.185Z,43.46
2024-02-08T04:16:45.870Z,43.21
2024-02-08T04:19:51.413Z,43.92
2024-02-08T04:22:58.957Z,44.08
2024-02-08T04:26:07.347Z,43.99
2024-02-08T04:29:14.862Z,43.66
2024-02-08T04:32:20.280Z,43.33
2024-02-08T04:35:26.456Z,43.38
2024-02-08T04:38:33.084Z,43.95
2024-02-08T04:41:37.814Z,43.58
2024-02-08T04:44:42.291Z,43.86
2024-02-08T04:47:46.804Z,43.34
2024-02-08T04:50:53.052Z,44.13
2024-02-08T04:53:40.914Z,43.19
2024-02-08T04:56:29.893Z,43.39
2024-02-08T04:59:22.156Z,44.06
2024-02-08T05:02:10.797Z,43.75
2024-02-08T05:04:56.817Z,43.93
2024-02-08T05:07:44.018Z,43.66
2024-02-08T05:10:30.280Z,43.98
2024-02-08T05:13:19.220Z,44.46
2024-02-08T05:16:06.607Z,44.03
2024-02-08T05:18:54.766Z,44.24
2024-02-08T05:21:44.695Z,44.25
2024-02-08T05:24:32.594Z,44.04
2024-02-08T05:27:19.356Z,43.95
2024-02-08T05:30:06.160Z,43.62
2024-02-08T05:32:53.353Z,43.97
2024-02-08T05:35:40.769Z,43.77
2024-02-08T05:38:27.361Z,43.72
2024-02-08T05:41:18.626Z,43.78
2024-02-08T05:44:08.603Z,44.44
2024-02-08T05:46:55.660Z,44.63
2024-02-08T05:49:50.994Z,44.08
2024-02-08T05:52:40.036Z,43.71
2024-02-08T05:55:26.100Z,44.02
2024-02-08T05:58:18.016Z,44.25
2024-02-08T06:01:07.037Z,44.37
2024-02-08T06:03:57.501Z,44.10
2024-02-08T06:06:54.086Z,44.38
2024-02-08T06:09:47.364Z,44.13
2024-02-08T06:12:47.655Z,44.64
2024-02-08T06:15:36.151Z,44.16
2024-02-08T06:18:26.927Z,44.15
2024-02-08T06:21:25.957Z,44.26
2024-02-08T06:24:25.360Z,43.97
2024-02-08T06:27:24.590Z,43.95
2024-02-08T06:30:20.433Z,43.94
2024-02-08T06:33:11.832Z,44.16
2024-02-08T06:35:58.537Z,44.28
2024-02-08T06:38:55.069Z,44.51
2024-02-08T06:42:08.815Z,44.24
2024-02-08T06:45:15.885Z,44.39
2024-02-08T06:48:02.529Z,44.04
2024-02-08T06:51:06.809Z,44.36
2024-02-08T06:54:13.933Z,44.15
2024-02-08T06:57:18.651Z,44.17
2024-02-08T07:00:26.752Z,44.26
2024-02-08T07:03:33.506Z,44.52
2024-02-08T07:06:46.075Z,44.95
2024-02-08T07:09:53.278Z,44.56
2024-02-08T07:12:58.283Z,44.23
2024-02-08T07:16:04.149Z,44.08
2024-02-08T07:19:09.183Z,44.43
2024-02-08T07:22:13.969Z,44.89
2024-02-08T07:25:18.748Z,44.46
2024-02-08T07:28:24.705Z,44.63
2024-02-08T07:31:30.349Z,44.67
2024-02-08T07:34:35.277Z,45.01
2024-02-08T07:37:27.001Z,44.36
2024-02-08T07:40:24.666Z,44.57
2024-02-08T07:43:17.293Z,44.86
2024-02-08T07:46:07.082Z,44.44
2024-02-08T07:49:00.017Z,44.47
2024-02-08T07:51:53.311Z,44.68
2024-02-08T07:54:43.576Z,44.83
2024-02-08T07:57:59.306Z,44.86
2024-02-08T08:00:45.665Z,44.40
2024-02-08T08:03:36.738Z,44.88
2024-02-08T08:06:24.295Z,44.66
2024-02-08T08:09:23.287Z,45.15
2024-02-08T08:12:09.461Z,44.54
2024-02-08T08:15:14.802Z,44.58
2024-02-08T08:18:02.256Z,44.74
2024-02-08T08:20:57.753Z,45.21
2024-02-08T08:24:02.183Z,44.67
2024-02-08T08:26:50.032Z,45.01
2024-02-08T08:29:44.424Z,44.76
2024-02-08T08:32:31.253Z,44.76
2024-02-08T08:35:40.391Z,44.60
2024-02-08T08:38:35.725Z,45.08
2024-02-08T08:41:25.762Z,45.12
2024-02-08T08:44:11.815Z,45.09
2024-02-08T08:47:02.193Z,45.12
2024-02-08T08:49:52.471Z,44.91
2024-02-08T08:52:49.714Z,45.14
2024-02-08T08:55:49.560Z,45.20
2024-02-08T08:58:42.546Z,44.91
2024-02-08T09:01:31.418Z,45.31
2024-02-08T09:04:27.786Z,45.64
2024-02-08T09:07:15.503Z,45.51
2024-02-08T09:10:05.496Z,45.83
2024-02-08T09:13:01.629Z,45.88
2024-02-08T09:15:58.507Z,45.81
2024-02-08T09:19:16.991Z,45.90
2024-02-08T09:22:08.007Z,45.88
2024-02-08T09:24:54.065Z,45.68
2024-02-08T09:27:40.140Z,46.07
2024-02-08T09:30:39.227Z,46.08
2024-02-08T09:33:31.586Z,45.67
2024-02-08T09:36:18.981Z,45.90
2024-02-08T09:39:16.180Z,45.81
2024-02-08T09:42:09.348Z,45.17
2024-02-08T09:45:21.364Z,45.45
2024-02-08T09:48:12.562Z,45.30
2024-02-08T09:51:01.819Z,45.68
2024-02-08T09:53:53.928Z,45.27
2024-02-08T09:56:40.756Z,45.50
2024-02-08T09:59:49.604Z,45.13
2024-02-08T10:02:38.444Z,45.29
2024-02-08T10:05:50.325Z,45.13
2024-02-08T10:08:39.808Z,44.83
2024-02-08T10:11:25.977Z,44.82
2024-02-08T10:14:33.973Z,44.40
2024-02-08T10:17:26.220Z,44.44
2024-02-08T10:20:12.996Z,44.20
2024-02-08T10:23:10.658Z,44.23
2024-02-08T10:26:17.934Z,44.02
2024-02-08T10:29:08.859Z,44.38
2024-02-08T10:31:55.556Z,44.04
2024-02-08T10:34:44.951Z,44.46
2024-02-08T10:37:50.799Z,44.49
2024-02-08T10:40:37.065Z,44.19
2024-02-08T10:43:26.906Z,43.85
2024-02-08T10:46:18.337Z,43.92
2024-02-08T10:49:10.668Z,43.85
2024-02-08T10:52:02.621Z,43.76
2024-02-08T10:54:53.901Z,43.85
2024-02-08T10:57:41.580Z,43.58
2024-02-08T11:00:41.949Z,43.51
2024-02-08T11:03:39.093Z,43.00
2024-02-08T11:06:30.750Z,43.20
2024-02-08T11:09:19.806Z,43.08
2024-02-08T11:12:18.322Z,42.90
2024-02-08T11:15:21.229Z,42.68
2024-02-08T11:18:12.360Z,42.57
2024-02-08T11:21:05.822Z,42.29
2024-02-08T11:23:52.787Z,41.44
2024-02-08T11:26:50.552Z,41.78
2024-02-08T11:29:47.119Z,40.19
2024-02-08T11:32:35.826Z,41.58
2024-02-08T11:35:24.405Z,41.61
2024-02-08T11:38:17.462Z,41.18
2024-02-08T11:41:11.151Z,41.20
2024-02-08T11:44:04.247Z,41.16
2024-02-08T11:46:59.195Z,40.99
2024-02-08T11:50:02.820Z,39.38
2024-02-08T11:52:56.468Z,40.43
2024-02-08T11:55:46.474Z,40.30
2024-02-08T11:58:36.979Z,40.30
2024-02-08T12:01:27.289Z,40.16
2024-02-08T12:04:17.646Z,39.91
2024-02-08T12:07:05.927Z,39.66
2024-02-08T12:10:01.782Z,39.39
2024-02-08T12:12:54.483Z,39.20
2024-02-08T12:15:46.276Z,37.22
2024-02-08T12:18:32.336Z,38.85
2024-02-08T12:21:19.664Z,38.65
2024-02-08T12:24:06.062Z,38.45
2024-02-08T12:26:56.352Z,38.40
2024-02-08T12:29:47.304Z,37.85
2024-02-08T12:32:34.850Z,37.98
2024-02-08T12:35:22.607Z,37.68
2024-02-08T12:38:10.350Z,37.63
2024-02-08T12:40:58.356Z,37.60
2024-02-08T12:43:48.019Z,37.74
2024-02-08T12:46:34.211Z,37.82
2024-02-08T12:49:20.467Z,38.03
2024-02-08T12:52:11.320Z,37.67
2024-02-08T12:54:57.706Z,37.64
2024-02-08T12:57:43.830Z,37.75
2024-02-08T13:00:36.997Z,37.94
2024-02-08T13:03:25.749Z,38.01
2024-02-08T13:06:15.541Z,37.94
2024-02-08T13:09:27.215Z,37.90
2024-02-08T13:12:23.130Z,37.88
2024-02-08T13:15:11.259Z,38.09
2024-02-08T13:17:58.311Z,38.15
2024-02-08T13:20:45.459Z,38.22
2024-02-08T13:23:34.411Z,38.09
2024-02-08T13:26:29.533Z,38.16
2024-02-08T13:29:19.043Z,38.04
2024-02-08T13:32:05.296Z,37.99
2024-02-08T13:34:52.589Z,37.99
2024-02-08T13:37:38.936Z,38.04
2024-02-08T13:40:26.331Z,37.88
2024-02-08T13:43:15.380Z,37.84
2024-02-08T13:46:02.637Z,37.94
2024-02-08T13:48:50.537Z,37.97
2024-02-08T13:51:36.492Z,37.76
2024-02-08T13:54:22.495Z,37.80
2024-02-08T13:57:15.443Z,37.63
2024-02-08T14:00:05.472Z,37.77
2024-02-08T14:02:58.830Z,37.63
2024-02-08T14:05:51.815Z,37.67
2024-02-08T14:08:44.320Z,37.82
2024-02-08T14:11:40.231Z,37.89
2024-02-08T14:14:41.396Z,38.07
2024-02-08T14:17:35.751Z,37.74
2024-02-08T14:20:32.606Z,37.72
2024-02-08T14:23:31.365Z,37.40
2024-02-08T14:26:17.809Z,37.57
2024-02-08T14:29:06.734Z,37.51
2024-02-08T14:31:54.283Z,37.53
2024-02-08T14:34:41.523Z,37.41
2024-02-08T14:37:29.762Z,37.30
2024-02-08T14:40:16.708Z,37.41
2024-02-08T14:43:07.306Z,37.31
2024-02-08T14:45:54.665Z,37.43
2024-02-08T14:48:40.383Z,37.77
2024-02-08T14:51:26.194Z,37.84
2024-02-08T14:54:14.108Z,37.84
2024-02-08T14:57:06.922Z,38.05
2024-02-08T15:00:06.965Z,38.05
2024-02-08T15:02:57.078Z,38.06
2024-02-08T15:05:50.067Z,38.34
2024-02-08T15:08:56.264Z,38.63
2024-02-08T15:11:59.180Z,38.52
2024-02-08T15:14:46.917Z,38.56
2024-02-08T15:17:44.267Z,38.84
2024-02-08T15:20:44.875Z,38.86
2024-02-08T15:23:35.397Z,38.89
2024-02-08T15:26:26.665Z,39.14
2024-02-08T15:29:32.011Z,38.97
2024-02-08T15:32:19.784Z,39.12
2024-02-08T15:35:06.597Z,39.55
2024-02-08T15:38:11.251Z,39.31
2024-02-08T15:41:08.148Z,39.33
2024-02-08T15:43:54.958Z,39.74
2024-02-08T15:46:42.830Z,39.49
2024-02-08T15:49:30.453Z,39.86
2024-02-08T15:52:17.238Z,39.97
2024-02-08T15:55:17.698Z,40.03
2024-02-08T15:58:27.637Z,40.26
2024-02-08T16:01:22.044Z,40.36
2024-02-08T16:04:27.753Z,41.07
2024-02-08T16:07:18.737Z,40.56
2024-02-08T16:10:21.128Z,40.68
2024-02-08T16:13:08.003Z,40.62
2024-02-08T16:15:58.289Z,40.55
2024-02-08T16:18:51.082Z,40.55
2024-02-08T16:21:36.958Z,40.79
2024-02-08T16:24:23.153Z,40.32
2024-02-08T16:27:14.426Z,40.76
2024-02-08T16:30:09.250Z,40.92
2024-02-08T16:33:09.677Z,40.86
2024-02-08T16:36:10.409Z,40.91
2024-02-08T16:39:15.889Z,41.00
2024-02-08T16:42:37.837Z,40.99
2024-02-08T16:45:37.428Z,41.26
2024-02-08T16:48:34.732Z,41.15
2024-02-08T16:51:28.058Z,41.09
2024-02-08T16:54:33.373Z,41.33
2024-02-08T16:57:22.777Z,41.33
2024-02-08T17:00:28.260Z,41.19
2024-02-08T17:03:33.684Z,41.34
2024-02-08T17:06:35.404Z,41.30
2024-02-08T17:09:25.942Z,41.52
2024-02-08T17:12:29.485Z,41.47
2024-02-08T17:15:51.049Z,41.66
2024-02-08T17:18:58.341Z,41.34
2024-02-08T17:21:53.591Z,41.77
2024-02-08T17:24:54.229Z,41.70
2024-02-08T17:27:50.667Z,41.50
2024-02-08T17:31:03.418Z,41.56
2024-02-08T17:33:51.312Z,41.77
2024-02-08T17:36:45.485Z,41.60
2024-02-08T17:39:44.227Z,41.71
2024-02-08T17:42:31.926Z,41.44
2024-02-08T17:45:21.470Z,41.75
2024-02-08T17:48:13.181Z,41.73
2024-02-08T17:51:08.726Z,41.77
2024-02-08T17:53:54.885Z,41.77
2024-02-08T17:56:46.998Z,41.80
2024-02-08T17:59:33.024Z,41.92
2024-02-08T18:02:22.829Z,41.89
2024-02-08T18:05:16.446Z,41.90
2024-02-08T18:08:09.021Z,41.88
2024-02-08T18:10:56.255Z,42.20
2024-02-08T18:13:47.398Z,42.28
2024-02-08T18:16:37.266Z,42.22
2024-02-08T18:19:33.943Z,42.29
2024-02-08T18:22:30.215Z,42.10
2024-02-08T18:25:30.414Z,42.05
2024-02-08T18:28:19.857Z,41.84
2024-02-08T18:31:09.847Z,42.08
2024-02-08T18:33:58.553Z,42.10
2024-02-08T18:36:46.379Z,41.76
2024-02-08T18:39:34.178Z,42.07
2024-02-08T18:42:23.771Z,42.04
2024-02-08T18:45:17.975Z,41.88
2024-02-08T18:48:05.839Z,42.18
2024-02-08T18:50:53.629Z,42.32
2024-02-08T18:53:39.812Z,42.28
2024-02-08T18:56:27.226Z,42.06
2024-02-08T18:59:13.841Z,41.96
2024-02-08T19:02:09.972Z,41.87
2024-02-08T19:04:59.909Z,42.27
2024-02-08T19:07:46.972Z,42.43
2024-02-08T19:10:37.829Z,42.37
2024-02-08T19:13:30.172Z,42.22
2024-02-08T19:16:17.749Z,42.12
2024-02-08T19:19:04.684Z,41.99
2024-02-08T19:21:52.123Z,42.23
2024-02-08T19:24:39.862Z,42.26
2024-02-08T19:27:27.532Z,42.06
2024-02-08T19:30:14.404Z,41.92
2024-02-08T19:33:00.624Z,41.87
2024-02-08T19:35:51.402Z,42.02
2024-02-08T19:38:37.447Z,42.25
2024-02-08T19:41:31.428Z,41.89
2024-02-08T19:44:27.810Z,42.47
2024-02-08T19:47:15.326Z,42.33
2024-02-08T19:50:08.252Z,42.18
2024-02-08T19:52:55.386Z,42.48
2024-02-08T19:55:42.842Z,42.45
2024-02-08T19:58:30.050Z,42.51
2024-02-08T20:01:24.319Z,42.48
2024-02-08T20:04:15.109Z,42.48
2024-02-08T20:07:06.227Z,42.57
2024-02-08T20:09:56.054Z,42.15
2024-02-08T20:12:49.775Z,42.35
2024-02-08T20:15:38.337Z,42.73
2024-02-08T20:18:26.298Z,42.38
2024-02-08T20:21:14.154Z,42.12
2024-02-08T20:24:04.398Z,42.29
2024-02-08T20:26:52.016Z,42.47
2024-02-08T20:29:38.548Z,42.51
2024-02-08T20:32:30.052Z,42.39
2024-02-08T20:35:16.669Z,42.65
2024-02-08T20:38:07.246Z,42.39
2024-02-08T20:40:57.435Z,42.53
2024-02-08T20:43:49.970Z,42.46
2024-02-08T20:46:40.945Z,42.46
2024-02-08T20:49:35.073Z,42.43
2024-02-08T20:52:23.302Z,42.18
2024-02-08T20:55:18.431Z,42.52
2024-02-08T20:58:12.376Z,42.19
2024-02-08T21:01:00.598Z,42.62
2024-02-08T21:03:47.198Z,42.52
2024-02-08T21:06:35.353Z,42.48
2024-02-08T21:09:22.587Z,42.33
2024-02-08T21:12:11.569Z,42.23
2024-02-08T21:15:00.186Z,42.62
2024-02-08T21:17:47.184Z,42.49
2024-02-08T21:20:36.699Z,42.63
2024-02-08T21:23:23.344Z,42.77
2024-02-08T21:26:10.492Z,42.76
2024-02-08T21:28:56.468Z,42.55
2024-02-08T21:31:48.567Z,42.57
2024-02-08T21:34:37.468Z,42.56
2024-02-08T21:37:24.763Z,42.92
2024-02-08T21:40:14.514Z,42.77
2024-02-08T21:43:01.260Z,42.85
2024-02-08T21:45:48.488Z,43.07
2024-02-08T21:48:38.797Z,43.01
2024-02-08T21:51:27.299Z,42.71
2024-02-08T21:54:13.643Z,42.98
2024-02-08T21:57:05.287Z,42.88
2024-02-08T21:59:58.921Z,43.03
2024-02-08T22:02:47.531Z,42.98
2024-02-08T22:05:33.877Z,42.91
2024-02-08T22:08:22.784Z,42.89
2024-02-08T22:11:09.985Z,43.00
2024-02-08T22:13:58.075Z,43.00
2024-02-08T22:16:45.325Z,43.13
2024-02-08T22:19:39.689Z,43.11
2024-02-08T22:22:44.963Z,43.23
2024-02-08T22:25:44.514Z,43.17
2024-02-08T22:28:34.629Z,43.28
2024-02-08T22:31:28.060Z,43.11
2024-02-08T22:34:24.630Z,43.47
2024-02-08T22:37:11.023Z,43.08
2024-02-08T22:39:57.275Z,43.23
2024-02-08T22:42:43.194Z,43.18
2024-02-08T22:45:30.957Z,43.19
2024-02-08T22:48:17.130Z,43.19
2024-02-08T22:51:07.511Z,42.96
2024-02-08T22:53:55.599Z,43.21
2024-02-08T22:56:44.818Z,43.19
2024-02-08T22:59:45.716Z,43.48
2024-02-08T23:02:36.562Z,43.44
2024-02-08T23:05:32.859Z,43.64
2024-02-08T23:08:19.007Z,43.29
2024-02-08T23:11:05.263Z,43.53
2024-02-08T23:13:52.640Z,43.90
2024-02-08T23:16:41.896Z,43.54
2024-02-08T23:19:33.832Z,43.63
2024-02-08T23:22:22.850Z,43.72
2024-02-08T23:25:10.249Z,43.47
2024-02-08T23:27:57.164Z,43.68
2024-02-08T23:30:45.691Z,43.67
2024-02-08T23:33:32.501Z,43.74
2024-02-08T23:36:21.005Z,43.81
2024-02-08T23:39:08.454Z,43.62
2024-02-08T23:41:57.595Z,43.72
2024-02-08T23:44:43.739Z,43.78
2024-02-08T23:47:29.862Z,43.81
2024-02-08T23:50:15.826Z,43.68
2024-02-08T23:53:05.388Z,43.65
2024-02-08T23:55:52.551Z,43.80
2024-02-08T23:58:42.133Z,43.80
